Mab Eol II — FGA6050 — position and weather

sailwx.info

Track history (hours):
 
Tides and Currents Weather Stations Pressure Air Temp Water Temp Dewpoint Dewpoint Depression Visibility Wind Speed Wind Dir Waves Ship Positions

Mab Eol II

Last reported at 2017-Sep-26 03:16 UTC. Time now 2017-Sep-26 09:34 UTC.
Position N 47°21' W 003°17'.

Length 12 m; draft 7.7 m.

Type: Fishing. MMSI: 227316520.

Date/timePositionNaut miles runAvg speedWind from/ knotsBaromVisibWave heightAir tempDewpointWater temp
2017-Sep-26 03:16N 47°21' W 003°17'2 8.3
2017-Sep-26 02:58N 47°24' W 003°18'4 8.4
2017-Sep-26 02:30N 47°28' W 003°19'4 8.6
2017-Sep-26 02:01N 47°32' W 003°20'4 8.7
2017-Sep-26 01:30N 47°36' W 003°21'4 8.6
2017-Sep-26 01:00N 47°40' W 003°22'3 6.8
2017-Sep-26 00:30N 47°44' W 003°22'0 0.0
2017-Sep-25 14:11N 47°44' W 003°22'0 0.9
2017-Sep-25 13:59N 47°44' W 003°22'0 0.3
2017-Sep-25 13:28N 47°44' W 003°22'2 5.3
2017-Sep-25 13:00N 47°41' W 003°22'4 8.5
2017-Sep-25 12:31N 47°37' W 003°21'4 8.4
2017-Sep-25 12:00N 47°33' W 003°20'4 8.2
2017-Sep-25 11:30N 47°29' W 003°19'2 3.9
2017-Sep-25 11:00N 47°27' W 003°18'0 0.4
2017-Sep-25 10:30N 47°27' W 003°18'2 4.2
2017-Sep-25 10:00N 47°25' W 003°20'1 1.5
2017-Sep-25 09:30N 47°24' W 003°20'3 1.4
2017-Sep-25 07:26N 47°25' W 003°24'1 1.5
2017-Sep-25 07:00N 47°25' W 003°24'2 3.3
2017-Sep-25 06:29N 47°27' W 003°24'1 0.9
2017-Sep-25 05:52N 47°27' W 003°23'1 1.5
2017-Sep-25 05:30N 47°26' W 003°22'0 0.9
2017-Sep-25 05:00N 47°27' W 003°23'1 1.1
2017-Sep-25 04:30N 47°27' W 003°24'3 6.1
2017-Sep-25 03:57N 47°24' W 003°25'3 6.3
2017-Sep-25 03:24N 47°24' W 003°20'3 6.8
2017-Sep-25 03:00N 47°27' W 003°19'2 3.7
2017-Sep-25 02:30N 47°29' W 003°19'4 8.4
2017-Sep-25 02:00N 47°33' W 003°20'4 8.3
2017-Sep-25 01:30N 47°37' W 003°21'4 8.1
2017-Sep-25 01:00N 47°41' W 003°22'3 5.3
2017-Sep-25 00:28N 47°44' W 003°22'  
2017-Sep-22 02:00N 47°36' W 003°22'4 8.5
2017-Sep-22 01:30N 47°41' W 003°22'3 6.1
2017-Sep-22 01:00N 47°44' W 003°22'0 0.0
2017-Sep-21 10:29N 47°44' W 003°22'0 0.2
2017-Sep-21 10:00N 47°44' W 003°22'4 8.4
2017-Sep-21 09:30N 47°40' W 003°23'5 8.9
2017-Sep-21 09:00N 47°35' W 003°24'2 3.7
2017-Sep-21 08:30N 47°33' W 003°24'2 3.6
2017-Sep-21 08:00N 47°32' W 003°22'2 3.7
2017-Sep-21 07:31N 47°31' W 003°21'2 3.7
2017-Sep-21 07:00N 47°29' W 003°20'1 2.1
2017-Sep-21 06:31N 47°28' W 003°20'2 4.0
2017-Sep-21 06:00N 47°30' W 003°20'2 4.2
2017-Sep-21 05:30N 47°28' W 003°20'1 2.5
2017-Sep-21 05:00N 47°27' W 003°22'3 4.9
2017-Sep-21 04:29N 47°26' W 003°25'1 1.1
2017-Sep-21 03:58N 47°26' W 003°24'3 7.0
2017-Sep-21 03:30N 47°28' W 003°20'3 6.4
2017-Sep-21 03:00N 47°31' W 003°21'3 5.0
2017-Sep-21 02:30N 47°33' W 003°24'4 7.2
2017-Sep-21 02:00N 47°36' W 003°24'4 8.2
2017-Sep-21 01:30N 47°40' W 003°22'3 6.6
2017-Sep-21 01:00N 47°44' W 003°22'0 0.0
2017-Sep-20 12:18N 47°44' W 003°22'0 0.2
2017-Sep-20 11:59N 47°44' W 003°22'4 9.1
2017-Sep-20 11:30N 47°39' W 003°22'5 9.3
2017-Sep-20 11:00N 47°35' W 003°21'4 9.1
2017-Sep-20 10:30N 47°30' W 003°21'4 7.2
2017-Sep-20 09:59N 47°27' W 003°18'0 0.6
2017-Sep-20 09:30N 47°27' W 003°18'1 2.4
2017-Sep-20 08:58N 47°26' W 003°20'1 1.6
2017-Sep-20 08:29N 47°26' W 003°21'1 1.3
2017-Sep-20 08:01N 47°26' W 003°21'1 2.4
2017-Sep-20 07:30N 47°26' W 003°22'1 1.2
2017-Sep-20 07:00N 47°26' W 003°23'1 2.1
2017-Sep-20 06:30N 47°27' W 003°24'1 1.4
2017-Sep-20 06:00N 47°27' W 003°24'1 1.1
2017-Sep-20 05:29N 47°27' W 003°24'1 1.1
2017-Sep-20 05:00N 47°27' W 003°23'2 4.0
2017-Sep-20 04:30N 47°27' W 003°21'2 3.7
2017-Sep-20 04:00N 47°27' W 003°18'4 5.5
2017-Sep-20 03:20N 47°26' W 003°23'3 7.1
2017-Sep-20 02:59N 47°28' W 003°24'4 8.4
2017-Sep-20 02:30N 47°32' W 003°24'4 8.5
2017-Sep-20 02:00N 47°36' W 003°23'4 8.7
2017-Sep-20 01:30N 47°41' W 003°22'3 6.1
2017-Sep-20 00:58N 47°44' W 003°22'0 0.0
2017-Sep-19 11:50N 47°44' W 003°22'0 0.1
2017-Sep-19 11:30N 47°44' W 003°22'4 8.3
2017-Sep-19 11:00N 47°40' W 003°22'5 9.1
2017-Sep-19 10:31N 47°35' W 003°21'5 8.9
2017-Sep-19 10:00N 47°31' W 003°19'4 7.9
2017-Sep-19 09:30N 47°27' W 003°18'0 0.3
2017-Sep-19 09:00N 47°27' W 003°18'1 2.5
2017-Sep-19 08:30N 47°26' W 003°16'0 0.8
2017-Sep-19 08:00N 47°26' W 003°17'0 0.8
2017-Sep-19 07:30N 47°26' W 003°16'1 1.7
2017-Sep-19 07:00N 47°27' W 003°17'1 2.0
2017-Sep-19 06:30N 47°27' W 003°18'1 1.4
2017-Sep-19 06:00N 47°27' W 003°17'0 0.5
2017-Sep-19 05:30N 47°27' W 003°17'0 0.7
2017-Sep-19 05:00N 47°27' W 003°17'0 0.6
2017-Sep-19 04:30N 47°27' W 003°17'0 0.5
2017-Sep-19 04:00N 47°27' W 003°18'1 2.0
2017-Sep-19 03:29N 47°27' W 003°16'2 4.6
2017-Sep-19 02:59N 47°29' W 003°18'4 9.0
2017-Sep-19 02:30N 47°33' W 003°19'4 8.9
2017-Sep-19 02:00N 47°37' W 003°21'4 8.7
2017-Sep-19 01:30N 47°41' W 003°22'2 4.7
2017-Sep-19 01:00N 47°44' W 003°22'  
Track history (hours):
 
Tides and Currents Weather Stations Pressure Air Temp Water Temp Dewpoint Dewpoint Depression Visibility Wind Speed Wind Dir Waves Ship Positions

Mab Eol II

Last reported at 2017-Sep-26 03:16 UTC. Time now 2017-Sep-26 09:34 UTC.
Position N 47°21' W 003°17'.

Length 12 m; draft 7.7 m.

Type: Fishing. MMSI: 227316520.

Date/timePositionNaut miles runAvg speedWind from/ knotsBaromVisibWave heightAir tempDewpointWater temp
2017-Sep-26 03:16N 47°21' W 003°17'2 8.3
2017-Sep-26 02:58N 47°24' W 003°18'4 8.4
2017-Sep-26 02:30N 47°28' W 003°19'4 8.6
2017-Sep-26 02:01N 47°32' W 003°20'4 8.7
2017-Sep-26 01:30N 47°36' W 003°21'4 8.6
2017-Sep-26 01:00N 47°40' W 003°22'3 6.8
2017-Sep-26 00:30N 47°44' W 003°22'0 0.0
2017-Sep-25 14:11N 47°44' W 003°22'0 0.9
2017-Sep-25 13:59N 47°44' W 003°22'0 0.3
2017-Sep-25 13:28N 47°44' W 003°22'2 5.3
2017-Sep-25 13:00N 47°41' W 003°22'4 8.5
2017-Sep-25 12:31N 47°37' W 003°21'4 8.4
2017-Sep-25 12:00N 47°33' W 003°20'4 8.2
2017-Sep-25 11:30N 47°29' W 003°19'2 3.9
2017-Sep-25 11:00N 47°27' W 003°18'0 0.4
2017-Sep-25 10:30N 47°27' W 003°18'2 4.2
2017-Sep-25 10:00N 47°25' W 003°20'1 1.5
2017-Sep-25 09:30N 47°24' W 003°20'3 1.4
2017-Sep-25 07:26N 47°25' W 003°24'1 1.5
2017-Sep-25 07:00N 47°25' W 003°24'2 3.3
2017-Sep-25 06:29N 47°27' W 003°24'1 0.9
2017-Sep-25 05:52N 47°27' W 003°23'1 1.5
2017-Sep-25 05:30N 47°26' W 003°22'0 0.9
2017-Sep-25 05:00N 47°27' W 003°23'1 1.1
2017-Sep-25 04:30N 47°27' W 003°24'3 6.1
2017-Sep-25 03:57N 47°24' W 003°25'3 6.3
2017-Sep-25 03:24N 47°24' W 003°20'3 6.8
2017-Sep-25 03:00N 47°27' W 003°19'2 3.7
2017-Sep-25 02:30N 47°29' W 003°19'4 8.4
2017-Sep-25 02:00N 47°33' W 003°20'4 8.3
2017-Sep-25 01:30N 47°37' W 003°21'4 8.1
2017-Sep-25 01:00N 47°41' W 003°22'3 5.3
2017-Sep-25 00:28N 47°44' W 003°22'  
2017-Sep-22 02:00N 47°36' W 003°22'4 8.5
2017-Sep-22 01:30N 47°41' W 003°22'3 6.1
2017-Sep-22 01:00N 47°44' W 003°22'0 0.0
2017-Sep-21 10:29N 47°44' W 003°22'0 0.2
2017-Sep-21 10:00N 47°44' W 003°22'4 8.4
2017-Sep-21 09:30N 47°40' W 003°23'5 8.9
2017-Sep-21 09:00N 47°35' W 003°24'2 3.7
2017-Sep-21 08:30N 47°33' W 003°24'2 3.6
2017-Sep-21 08:00N 47°32' W 003°22'2 3.7
2017-Sep-21 07:31N 47°31' W 003°21'2 3.7
2017-Sep-21 07:00N 47°29' W 003°20'1 2.1
2017-Sep-21 06:31N 47°28' W 003°20'2 4.0
2017-Sep-21 06:00N 47°30' W 003°20'2 4.2
2017-Sep-21 05:30N 47°28' W 003°20'1 2.5
2017-Sep-21 05:00N 47°27' W 003°22'3 4.9
2017-Sep-21 04:29N 47°26' W 003°25'1 1.1
2017-Sep-21 03:58N 47°26' W 003°24'3 7.0
2017-Sep-21 03:30N 47°28' W 003°20'3 6.4
2017-Sep-21 03:00N 47°31' W 003°21'3 5.0
2017-Sep-21 02:30N 47°33' W 003°24'4 7.2
2017-Sep-21 02:00N 47°36' W 003°24'4 8.2
2017-Sep-21 01:30N 47°40' W 003°22'3 6.6
2017-Sep-21 01:00N 47°44' W 003°22'0 0.0
2017-Sep-20 12:18N 47°44' W 003°22'0 0.2
2017-Sep-20 11:59N 47°44' W 003°22'4 9.1
2017-Sep-20 11:30N 47°39' W 003°22'5 9.3
2017-Sep-20 11:00N 47°35' W 003°21'4 9.1
2017-Sep-20 10:30N 47°30' W 003°21'4 7.2
2017-Sep-20 09:59N 47°27' W 003°18'0 0.6
2017-Sep-20 09:30N 47°27' W 003°18'1 2.4
2017-Sep-20 08:58N 47°26' W 003°20'1 1.6
2017-Sep-20 08:29N 47°26' W 003°21'1 1.3
2017-Sep-20 08:01N 47°26' W 003°21'1 2.4
2017-Sep-20 07:30N 47°26' W 003°22'1 1.2
2017-Sep-20 07:00N 47°26' W 003°23'1 2.1
2017-Sep-20 06:30N 47°27' W 003°24'1 1.4
2017-Sep-20 06:00N 47°27' W 003°24'1 1.1
2017-Sep-20 05:29N 47°27' W 003°24'1 1.1
2017-Sep-20 05:00N 47°27' W 003°23'2 4.0
2017-Sep-20 04:30N 47°27' W 003°21'2 3.7
2017-Sep-20 04:00N 47°27' W 003°18'4 5.5
2017-Sep-20 03:20N 47°26' W 003°23'3 7.1
2017-Sep-20 02:59N 47°28' W 003°24'4 8.4
2017-Sep-20 02:30N 47°32' W 003°24'4 8.5
2017-Sep-20 02:00N 47°36' W 003°23'4 8.7
2017-Sep-20 01:30N 47°41' W 003°22'3 6.1
2017-Sep-20 00:58N 47°44' W 003°22'0 0.0
2017-Sep-19 11:50N 47°44' W 003°22'0 0.1
2017-Sep-19 11:30N 47°44' W 003°22'4 8.3
2017-Sep-19 11:00N 47°40' W 003°22'5 9.1
2017-Sep-19 10:31N 47°35' W 003°21'5 8.9
2017-Sep-19 10:00N 47°31' W 003°19'4 7.9
2017-Sep-19 09:30N 47°27' W 003°18'0 0.3
2017-Sep-19 09:00N 47°27' W 003°18'1 2.5
2017-Sep-19 08:30N 47°26' W 003°16'0 0.8
2017-Sep-19 08:00N 47°26' W 003°17'0 0.8
2017-Sep-19 07:30N 47°26' W 003°16'1 1.7
2017-Sep-19 07:00N 47°27' W 003°17'1 2.0
2017-Sep-19 06:30N 47°27' W 003°18'1 1.4
2017-Sep-19 06:00N 47°27' W 003°17'0 0.5
2017-Sep-19 05:30N 47°27' W 003°17'0 0.7
2017-Sep-19 05:00N 47°27' W 003°17'0 0.6
2017-Sep-19 04:30N 47°27' W 003°17'0 0.5
2017-Sep-19 04:00N 47°27' W 003°18'1 2.0
2017-Sep-19 03:29N 47°27' W 003°16'2 4.6
2017-Sep-19 02:59N 47°29' W 003°18'4 9.0
2017-Sep-19 02:30N 47°33' W 003°19'4 8.9
2017-Sep-19 02:00N 47°37' W 003°21'4 8.7
2017-Sep-19 01:30N 47°41' W 003°22'2 4.7
2017-Sep-19 01:00N 47°44' W 003°22'  

Dump ship's entire track history